Time;durP1;ratioP1;P1;durP2;ratioP2;P2;SDS_P1;SDS_P2;PMS_P1;PMS_P2;Temp;Humidity;BMP_temperature;BMP_pressure;BME280_temperature;BME280_humidity;BME280_pressure;Samples;Min_cycle;Max_cycle;Signal;HPM_P1;HPM_P2
2022/10/13 02:40:36;;;;;;;;;;;;;;;;;;;;;
2022/10/13 02:47:46;;;;;;;;;;;;;;;;;;;;;
2022/10/13 03:00:41;;;;;;;23.00;7.57;;;;;;;;;;5958919;23;20031;-82
2022/10/13 03:04:24;;;;;;;30.60;12.50;;;;;;;;;;5836856;24;20051;-82
2022/10/13 03:08:02;;;;;;;;;;;;;;;;;;;;;
2022/10/13 03:11:06;;;;;;;;;;;;;;;;;;5876802;23;20345;-82
2022/10/13 03:14:04;;;;;;;40.95;13.77;;;;;;;;;;5957450;23;19960;-82
2022/10/13 03:17:16;;;;;;;28.35;12.75;;;;;;;;;;5956868;23;20031;-82
2022/10/13 03:20:31;;;;;;;20.83;10.07;;;;;;;;;;6016559;23;20034;-82
2022/10/13 03:23:16;;;;;;;;;;;;;;;;;;5979953;23;20397;-82
2022/10/13 03:26:12;;;;;;;57.25;14.88;;;;;;;;;;5984546;23;19929;-82
2022/10/13 03:28:55;;;;;;;19.15;9.32;;;;;;;;;;5989533;23;20027;-81
2022/10/13 03:31:42;;;;;;;50.20;13.30;;;;;;;;;;5961225;24;20491;-82
2022/10/13 03:34:20;;;;;;;27.67;13.37;;;;;;;;;;5962084;23;20031;-81
2022/10/13 03:36:56;;;;;;;39.08;12.07;;;;;;;;;;5962131;23;20020;-82
2022/10/13 03:39:37;;;;;;;17.00;9.48;;;;;;;;;;5996724;23;20032;-82
2022/10/13 03:42:18;;;;;;;19.67;11.35;;;;;;;;;;5974034;23;20039;-82
2022/10/13 03:45:03;;;;;;;26.92;11.57;;;;;;;;;;6007294;23;20052;-82
2022/10/13 03:48:15;;;;;;;25.35;10.55;;;;;;;;;;5949797;23;20136;-82
2022/10/13 03:51:40;;;;;;;20.38;8.60;;;;;;;;;;5978814;23;20024;-82
2022/10/13 03:54:12;;;;;;;31.90;12.45;;;;;;;;;;5972561;23;20032;-82
2022/10/13 03:56:50;;;;;;;28.08;11.82;;;;;;;;;;6149861;23;20025;-82
2022/10/13 03:59:44;;;;;;;42.75;9.80;;;;;;;;;;6157761;23;20029;-82
2022/10/13 04:02:37;;;;;;;12.68;8.60;;;;;;;;;;6134029;23;20329;-82
2022/10/13 04:10:08;;;;;;;16.80;8.15;;;;;;;;;;6103260;23;20440;-82
2022/10/13 04:13:23;;;;;;;9.13;7.78;;;;;;;;;;6157138;23;20724;-81
2022/10/13 04:17:18;;;;;;;;;;;;;;;;;;;;;
2022/10/13 04:20:19;;;;;;;10.55;8.05;;;;;;;;;;6141394;23;20018;-82
2022/10/13 04:23:31;;;;;;;20.02;9.40;;;;;;;;;;6077850;23;20484;-82
2022/10/13 04:31:08;;;;;;;15.32;9.73;;;;;;;;;;6060483;23;20033;-82
2022/10/13 04:34:21;;;;;;;13.05;10.25;;;;;;;;;;6077668;23;20115;-82
2022/10/13 04:37:29;;;;;;;14.60;10.15;;;;;;;;;;6068136;23;20018;-82
2022/10/13 04:44:16;;;;;;;17.05;9.88;;;;;;;;;;6097644;23;20283;-80
2022/10/13 04:47:02;;;;;;;14.70;7.65;;;;;;;;;;6128003;23;20022;-82
2022/10/13 04:50:13;;;;;;;16.98;9.45;;;;;;;;;;6074570;23;20500;-83
2022/10/13 04:53:28;;;;;;;;;;;;;;;;;;;;;
2022/10/13 05:12:08;;;;;;;10.40;7.95;;;;;;;;;;6193108;23;20025;-82
2022/10/13 05:14:36;;;;;;;8.77;6.57;;;;;;;;;;6172641;23;20028;-82
2022/10/13 05:33:24;;;;;;;9.25;7.20;;;;;;;;;;6111738;23;20346;-82
2022/10/13 05:37:00;;;;;;;15.05;7.80;;;;;;;;;;6088685;23;20010;-82
2022/10/13 05:57:35;;;;;;;11.65;9.23;;;;;;;;;;5981190;23;20015;-82
2022/10/13 06:01:23;;;;;;;12.57;9.95;;;;;;;;;;5907961;23;20370;-82
2022/10/13 06:15:20;;;;;;;19.80;12.10;;;;;;;;;;5880243;24;20021;-84
2022/10/13 06:23:56;;;;;;;10.10;8.25;;;;;;;;;;5902629;24;20138;-83
2022/10/13 06:52:48;;;;;;;;;;;;;;;;;;;;;
2022/10/13 06:56:22;;;;;;;24.65;11.98;;;;;;;;;;5983016;23;20019;-81
2022/10/13 07:05:12;;;;;;;;;;;;;;;;;;;;;
2022/10/13 07:13:26;;;;;;;20.60;11.85;;;;;;;;;;5992403;23;20036;-83
2022/10/13 07:17:52;;;;;;;16.20;11.02;;;;;;;;;;5974953;23;20153;-83
2022/10/13 07:21:48;;;;;;;18.20;10.10;;;;;;;;;;5877303;24;20029;-83
2022/10/13 07:35:27;;;;;;;;;;;;;;;;;;;;;
2022/10/13 07:39:00;;;;;;;;;;;;;;;;;;;;;
2022/10/13 07:42:59;;;;;;;;;;;;;;;;;;;;;
2022/10/13 11:52:24;;;;;;;14.10;7.80;;;;;;;;;;6147935;23;19921;-84
2022/10/13 12:00:17;;;;;;;16.85;8.98;;;;;;;;;;6158002;23;20033;-83
2022/10/13 12:04:24;;;;;;;13.65;7.95;;;;;;;;;;6111940;23;20045;-83
2022/10/13 12:15:58;;;;;;;;;;;;;;;;;;;;;
2022/10/13 12:19:11;;;;;;;;;;;;;;;;;;;;;
2022/10/13 12:22:46;;;;;;;23.80;9.45;;;;;;;;;;6132193;23;20079;-82
2022/10/13 12:25:22;;;;;;;11.90;7.22;;;;;;;;;;6069577;23;20165;-82
2022/10/13 12:28:36;;;;;;;10.32;7.85;;;;;;;;;;6057443;23;20026;-82
2022/10/13 12:32:10;;;;;;;;;;;;;;;;;;;;;
2022/10/13 12:39:23;;;;;;;10.00;8.13;;;;;;;;;;6235447;22;20613;-84
2022/10/13 12:54:43;;;;;;;;;;;;;;;;;;;;;
2022/10/13 16:57:15;;;;;;;;;;;;;;;;;;;;;
2022/10/13 17:01:59;;;;;;;;;;;;;;;;;;;;;
2022/10/13 19:19:10;;;;;;;19.05;10.15;;;;;;;;;;6135358;23;20031;-80
2022/10/13 19:26:57;;;;;;;;;;;;;;;;;;;;;
2022/10/13 19:31:18;;;;;;;;;;;;;;;;;;;;;
2022/10/13 19:34:56;;;;;;;16.45;11.80;;;;;;;;;;6018019;23;20032;-80
2022/10/13 19:43:03;;;;;;;17.45;11.18;;;;;;;;;;6082618;23;20023;-80
2022/10/13 19:46:42;;;;;;;14.20;10.15;;;;;;;;;;6059239;23;20342;-80
2022/10/13 19:50:05;;;;;;;18.67;13.50;;;;;;;;;;6119199;23;20026;-81
2022/10/13 19:59:17;;;;;;;10.73;8.07;;;;;;;;;;6036940;23;20022;-80
2022/10/13 20:07:55;;;;;;;;;;;;;;;;;;;;;
2022/10/13 20:40:51;;;;;;;;;;;;;;;;;;;;;
2022/10/13 20:55:02;;;;;;;21.15;12.38;;;;;;;;;;5732273;24;20035;-81
2022/10/13 21:08:40;;;;;;;25.17;13.00;;;;;;;;;;5964756;23;20100;-81
2022/10/13 21:17:56;;;;;;;;;;;;;;;;;;;;;
2022/10/13 22:45:38;;;;;;;20.30;16.15;;;;;;;;;;6147080;23;20036;-82
2022/10/13 22:48:43;;;;;;;18.42;15.23;;;;;;;;;;6144556;23;20032;-82
2022/10/13 22:51:24;;;;;;;25.77;12.95;;;;;;;;;;6138499;23;20026;-82
2022/10/13 22:54:03;;;;;;;19.20;13.02;;;;;;;;;;6183925;23;20024;-82
2022/10/13 22:56:32;;;;;;;18.77;14.00;;;;;;;;;;6169731;23;20341;-82
2022/10/13 22:59:21;;;;;;;37.00;12.57;;;;;;;;;;6188720;23;20028;-88
2022/10/13 23:02:13;;;;;;;22.60;11.23;;;;;;;;;;6184175;23;20013;-84
2022/10/13 23:04:48;;;;;;;12.38;9.02;;;;;;;;;;6160213;23;20036;-88
2022/10/13 23:07:16;;;;;;;12.60;8.68;;;;;;;;;;6187707;23;20468;-84
2022/10/13 23:09:43;;;;;;;16.42;9.77;;;;;;;;;;6160259;23;20020;-84
2022/10/13 23:12:11;;;;;;;12.13;6.43;;;;;;;;;;6160174;23;20025;-84
2022/10/13 23:14:39;;;;;;;6.10;5.28;;;;;;;;;;6191769;23;20044;-84
2022/10/13 23:17:07;;;;;;;18.65;5.20;;;;;;;;;;6184441;23;20016;-84
2022/10/13 23:19:34;;;;;;;10.65;5.65;;;;;;;;;;6187194;23;20349;-84
2022/10/13 23:22:02;;;;;;;6.93;4.78;;;;;;;;;;6134378;23;20046;-84
2022/10/13 23:24:30;;;;;;;11.38;5.07;;;;;;;;;;6195500;23;20013;-83
2022/10/13 23:26:59;;;;;;;8.18;6.22;;;;;;;;;;6134051;23;20028;-84
2022/10/13 23:29:27;;;;;;;6.43;3.97;;;;;;;;;;6134786;23;20025;-83
2022/10/13 23:31:55;;;;;;;5.35;3.90;;;;;;;;;;6187036;23;20342;-84
2022/10/13 23:34:23;;;;;;;7.57;4.80;;;;;;;;;;6167355;23;20025;-84
2022/10/13 23:36:50;;;;;;;4.72;4.18;;;;;;;;;;6194534;23;20013;-84
2022/10/13 23:39:18;;;;;;;7.45;4.53;;;;;;;;;;6188004;23;20025;-83
2022/10/13 23:41:56;;;;;;;5.25;4.20;;;;;;;;;;6195766;23;20333;-83
2022/10/13 23:44:24;;;;;;;10.98;4.38;;;;;;;;;;6166594;23;20010;-82
2022/10/13 23:46:52;;;;;;;6.82;3.20;;;;;;;;;;6159632;23;20117;-83
2022/10/13 23:49:21;;;;;;;4.22;3.83;;;;;;;;;;6166571;23;20017;-83
2022/10/13 23:51:48;;;;;;;4.05;3.55;;;;;;;;;;6125393;23;20026;-83
2022/10/13 23:54:16;;;;;;;9.90;3.65;;;;;;;;;;6150000;23;20033;-82
2022/10/13 23:56:44;;;;;;;5.18;3.70;;;;;;;;;;6165980;23;20013;-82
2022/10/13 23:59:11;;;;;;;4.38;3.97;;;;;;;;;;6158491;23;20018;-83
